sensor_id;sensor_type;location;lat;lon;timestamp;pressure;altitude;pressure_sealevel;temperature;humidity
77323;BME280;66384;51.052;9.850;2024-01-30T00:01:37;99939.46;;;1.44;72.87
77323;BME280;66384;51.052;9.850;2024-01-30T00:04:14;99935.71;;;1.44;72.86
77323;BME280;66384;51.052;9.850;2024-01-30T00:06:51;99934.82;;;1.43;72.72
77323;BME280;66384;51.052;9.850;2024-01-30T00:09:27;99933.90;;;1.41;72.86
77323;BME280;66384;51.052;9.850;2024-01-30T00:12:04;99931.64;;;1.38;72.92
77323;BME280;66384;51.052;9.850;2024-01-30T00:14:40;99933.48;;;1.39;73.14
77323;BME280;66384;51.052;9.850;2024-01-30T00:17:17;99928.27;;;1.40;73.08
77323;BME280;66384;51.052;9.850;2024-01-30T00:19:54;99931.57;;;1.41;73.08
77323;BME280;66384;51.052;9.850;2024-01-30T00:22:30;99930.23;;;1.39;73.05
77323;BME280;66384;51.052;9.850;2024-01-30T00:25:07;99929.98;;;1.38;73.04
77323;BME280;66384;51.052;9.850;2024-01-30T00:27:44;99929.61;;;1.38;72.94
77323;BME280;66384;51.052;9.850;2024-01-30T00:30:22;99927.52;;;1.37;72.81
77323;BME280;66384;51.052;9.850;2024-01-30T00:32:59;99930.04;;;1.34;72.78
77323;BME280;66384;51.052;9.850;2024-01-30T00:35:35;99929.11;;;1.31;72.83
77323;BME280;66384;51.052;9.850;2024-01-30T00:38:11;99933.05;;;1.29;72.84
77323;BME280;66384;51.052;9.850;2024-01-30T00:40:47;99927.79;;;1.27;72.86
77323;BME280;66384;51.052;9.850;2024-01-30T00:43:24;99931.30;;;1.27;72.81
77323;BME280;66384;51.052;9.850;2024-01-30T00:46:01;99925.14;;;1.26;72.94
77323;BME280;66384;51.052;9.850;2024-01-30T00:48:37;99925.17;;;1.27;72.92
77323;BME280;66384;51.052;9.850;2024-01-30T00:51:14;99920.16;;;1.26;72.85
77323;BME280;66384;51.052;9.850;2024-01-30T00:53:50;99922.06;;;1.22;72.83
77323;BME280;66384;51.052;9.850;2024-01-30T00:56:26;99917.49;;;1.20;72.82
77323;BME280;66384;51.052;9.850;2024-01-30T00:59:03;99918.83;;;1.18;72.93
77323;BME280;66384;51.052;9.850;2024-01-30T01:01:39;99923.27;;;1.16;72.85
77323;BME280;66384;51.052;9.850;2024-01-30T01:04:16;99922.39;;;1.13;72.95
77323;BME280;66384;51.052;9.850;2024-01-30T01:06:52;99919.48;;;1.11;73.05
77323;BME280;66384;51.052;9.850;2024-01-30T01:09:29;99916.02;;;1.10;73.10
77323;BME280;66384;51.052;9.850;2024-01-30T01:12:06;99917.09;;;1.07;73.03
77323;BME280;66384;51.052;9.850;2024-01-30T01:14:42;99912.80;;;1.04;73.23
77323;BME280;66384;51.052;9.850;2024-01-30T01:17:18;99917.88;;;1.02;73.37
77323;BME280;66384;51.052;9.850;2024-01-30T01:19:54;99917.95;;;1.01;73.41
77323;BME280;66384;51.052;9.850;2024-01-30T01:22:31;99916.48;;;1.00;73.38
77323;BME280;66384;51.052;9.850;2024-01-30T01:25:08;99914.07;;;0.99;73.46
77323;BME280;66384;51.052;9.850;2024-01-30T01:27:44;99913.64;;;0.98;73.34
77323;BME280;66384;51.052;9.850;2024-01-30T01:30:25;99911.09;;;0.96;73.45
77323;BME280;66384;51.052;9.850;2024-01-30T01:33:02;99914.80;;;0.94;73.46
77323;BME280;66384;51.052;9.850;2024-01-30T01:35:40;99912.86;;;0.93;73.65
77323;BME280;66384;51.052;9.850;2024-01-30T01:38:16;99914.12;;;0.94;73.60
77323;BME280;66384;51.052;9.850;2024-01-30T01:40:53;99914.33;;;0.95;73.63
77323;BME280;66384;51.052;9.850;2024-01-30T01:43:29;99910.68;;;0.95;73.75
77323;BME280;66384;51.052;9.850;2024-01-30T01:46:06;99910.61;;;0.96;73.71
77323;BME280;66384;51.052;9.850;2024-01-30T01:48:43;99916.41;;;0.97;73.52
77323;BME280;66384;51.052;9.850;2024-01-30T01:51:20;99916.48;;;0.98;73.59
77323;BME280;66384;51.052;9.850;2024-01-30T01:53:55;99912.77;;;0.98;73.69
77323;BME280;66384;51.052;9.850;2024-01-30T01:56:33;99914.42;;;0.95;73.59
77323;BME280;66384;51.052;9.850;2024-01-30T01:59:10;99912.86;;;0.93;73.57
77323;BME280;66384;51.052;9.850;2024-01-30T02:01:47;99909.58;;;0.90;73.68
77323;BME280;66384;51.052;9.850;2024-01-30T02:04:25;99909.71;;;0.87;73.83
77323;BME280;66384;51.052;9.850;2024-01-30T02:07:01;99910.02;;;0.87;73.95
77323;BME280;66384;51.052;9.850;2024-01-30T02:09:37;99907.00;;;0.87;73.87
77323;BME280;66384;51.052;9.850;2024-01-30T02:12:13;99906.10;;;0.89;73.91
77323;BME280;66384;51.052;9.850;2024-01-30T02:14:50;99908.29;;;0.93;73.98
77323;BME280;66384;51.052;9.850;2024-01-30T02:17:28;99906.40;;;0.99;73.82
77323;BME280;66384;51.052;9.850;2024-01-30T02:20:05;99909.75;;;1.04;73.68
77323;BME280;66384;51.052;9.850;2024-01-30T02:22:43;99908.39;;;1.06;73.51
77323;BME280;66384;51.052;9.850;2024-01-30T02:25:19;99905.71;;;1.06;73.27
77323;BME280;66384;51.052;9.850;2024-01-30T02:27:56;99906.73;;;1.07;73.27
77323;BME280;66384;51.052;9.850;2024-01-30T02:30:32;99905.86;;;1.04;73.25
77323;BME280;66384;51.052;9.850;2024-01-30T02:33:08;99906.98;;;1.03;73.12
77323;BME280;66384;51.052;9.850;2024-01-30T02:35:45;99907.64;;;1.01;73.15
77323;BME280;66384;51.052;9.850;2024-01-30T02:38:21;99906.14;;;0.99;73.29
77323;BME280;66384;51.052;9.850;2024-01-30T02:40:58;99904.39;;;0.99;73.27
77323;BME280;66384;51.052;9.850;2024-01-30T02:43:34;99907.27;;;0.99;73.32
77323;BME280;66384;51.052;9.850;2024-01-30T02:46:11;99901.54;;;0.97;73.32
77323;BME280;66384;51.052;9.850;2024-01-30T02:48:47;99901.68;;;0.95;73.22
77323;BME280;66384;51.052;9.850;2024-01-30T02:51:24;99903.92;;;0.93;73.10
77323;BME280;66384;51.052;9.850;2024-01-30T02:54:00;99900.55;;;0.89;72.97
77323;BME280;66384;51.052;9.850;2024-01-30T02:56:36;99892.91;;;0.87;73.03
77323;BME280;66384;51.052;9.850;2024-01-30T02:59:13;99890.33;;;0.88;73.17
77323;BME280;66384;51.052;9.850;2024-01-30T03:01:49;99888.54;;;0.89;73.13
77323;BME280;66384;51.052;9.850;2024-01-30T03:04:25;99882.88;;;0.88;73.09
77323;BME280;66384;51.052;9.850;2024-01-30T03:07:03;99882.05;;;0.88;73.06
77323;BME280;66384;51.052;9.850;2024-01-30T03:09:40;99881.23;;;0.89;73.19
77323;BME280;66384;51.052;9.850;2024-01-30T03:12:17;99879.89;;;0.89;73.14
77323;BME280;66384;51.052;9.850;2024-01-30T03:14:53;99881.02;;;0.88;73.26
77323;BME280;66384;51.052;9.850;2024-01-30T03:17:30;99879.71;;;0.87;73.14
77323;BME280;66384;51.052;9.850;2024-01-30T03:20:08;99878.45;;;0.88;73.21
77323;BME280;66384;51.052;9.850;2024-01-30T03:22:45;99875.06;;;0.88;73.18
77323;BME280;66384;51.052;9.850;2024-01-30T03:25:21;99876.64;;;0.89;73.22
77323;BME280;66384;51.052;9.850;2024-01-30T03:27:57;99876.14;;;0.89;73.12
77323;BME280;66384;51.052;9.850;2024-01-30T03:30:35;99874.75;;;0.88;73.02
77323;BME280;66384;51.052;9.850;2024-01-30T03:33:12;99870.50;;;0.88;72.99
77323;BME280;66384;51.052;9.850;2024-01-30T03:35:49;99875.63;;;0.89;72.87
77323;BME280;66384;51.052;9.850;2024-01-30T03:38:25;99872.20;;;0.88;72.90
77323;BME280;66384;51.052;9.850;2024-01-30T03:41:03;99873.69;;;0.88;73.00
77323;BME280;66384;51.052;9.850;2024-01-30T03:43:40;99872.43;;;0.87;73.14
77323;BME280;66384;51.052;9.850;2024-01-30T03:46:17;99872.33;;;0.86;73.05
77323;BME280;66384;51.052;9.850;2024-01-30T03:48:53;99875.22;;;0.84;73.12
77323;BME280;66384;51.052;9.850;2024-01-30T03:51:30;99871.83;;;0.84;73.23
77323;BME280;66384;51.052;9.850;2024-01-30T03:54:06;99871.65;;;0.84;73.22
77323;BME280;66384;51.052;9.850;2024-01-30T03:56:43;99871.48;;;0.84;73.24
77323;BME280;66384;51.052;9.850;2024-01-30T03:59:19;99865.00;;;0.83;73.16
77323;BME280;66384;51.052;9.850;2024-01-30T04:01:57;99865.65;;;0.83;73.18
77323;BME280;66384;51.052;9.850;2024-01-30T04:04:34;99860.21;;;0.83;73.17
77323;BME280;66384;51.052;9.850;2024-01-30T04:07:11;99861.33;;;0.82;73.16
77323;BME280;66384;51.052;9.850;2024-01-30T04:09:47;99855.40;;;0.80;73.10
77323;BME280;66384;51.052;9.850;2024-01-30T04:12:23;99856.41;;;0.80;73.21
77323;BME280;66384;51.052;9.850;2024-01-30T04:15:00;99855.94;;;0.80;73.16
77323;BME280;66384;51.052;9.850;2024-01-30T04:17:37;99854.32;;;0.79;73.05
77323;BME280;66384;51.052;9.850;2024-01-30T04:20:16;99853.60;;;0.78;73.16
77323;BME280;66384;51.052;9.850;2024-01-30T04:22:52;99856.30;;;0.76;73.01
77323;BME280;66384;51.052;9.850;2024-01-30T04:25:28;99855.75;;;0.72;72.94
77323;BME280;66384;51.052;9.850;2024-01-30T04:28:05;99847.94;;;0.67;73.17
77323;BME280;66384;51.052;9.850;2024-01-30T04:30:42;99847.45;;;0.61;73.32
77323;BME280;66384;51.052;9.850;2024-01-30T04:33:18;99850.45;;;0.59;73.41
77323;BME280;66384;51.052;9.850;2024-01-30T04:35:54;99848.70;;;0.59;73.49
77323;BME280;66384;51.052;9.850;2024-01-30T04:38:31;99845.90;;;0.59;73.46
77323;BME280;66384;51.052;9.850;2024-01-30T04:41:07;99845.10;;;0.60;73.34
77323;BME280;66384;51.052;9.850;2024-01-30T04:43:44;99847.62;;;0.62;73.36
77323;BME280;66384;51.052;9.850;2024-01-30T04:46:20;99844.13;;;0.62;73.32
77323;BME280;66384;51.052;9.850;2024-01-30T04:48:56;99844.25;;;0.62;73.28
77323;BME280;66384;51.052;9.850;2024-01-30T04:51:33;99847.35;;;0.60;73.20
77323;BME280;66384;51.052;9.850;2024-01-30T04:54:09;99846.91;;;0.57;73.20
77323;BME280;66384;51.052;9.850;2024-01-30T04:56:45;99851.17;;;0.56;73.26
77323;BME280;66384;51.052;9.850;2024-01-30T04:59:22;99855.83;;;0.53;73.09
77323;BME280;66384;51.052;9.850;2024-01-30T05:01:58;99854.98;;;0.51;73.10
77323;BME280;66384;51.052;9.850;2024-01-30T05:04:34;99856.63;;;0.50;73.07
77323;BME280;66384;51.052;9.850;2024-01-30T05:07:11;99857.25;;;0.50;73.11
77323;BME280;66384;51.052;9.850;2024-01-30T05:09:47;99856.35;;;0.49;73.18
77323;BME280;66384;51.052;9.850;2024-01-30T05:12:25;99860.76;;;0.47;73.26
77323;BME280;66384;51.052;9.850;2024-01-30T05:15:02;99862.25;;;0.46;73.22
77323;BME280;66384;51.052;9.850;2024-01-30T05:17:38;99861.01;;;0.43;73.21
77323;BME280;66384;51.052;9.850;2024-01-30T05:20:16;99858.31;;;0.39;73.14
77323;BME280;66384;51.052;9.850;2024-01-30T05:22:53;99860.15;;;0.37;73.27
77323;BME280;66384;51.052;9.850;2024-01-30T05:25:30;99861.73;;;0.36;73.22
77323;BME280;66384;51.052;9.850;2024-01-30T05:28:07;99859.67;;;0.36;73.25
77323;BME280;66384;51.052;9.850;2024-01-30T05:30:44;99861.71;;;0.34;73.31
77323;BME280;66384;51.052;9.850;2024-01-30T05:33:21;99859.69;;;0.32;73.36
77323;BME280;66384;51.052;9.850;2024-01-30T05:35:57;99861.16;;;0.32;73.36
77323;BME280;66384;51.052;9.850;2024-01-30T05:38:34;99862.18;;;0.31;73.31
77323;BME280;66384;51.052;9.850;2024-01-30T05:41:11;99864.82;;;0.31;73.30
77323;BME280;66384;51.052;9.850;2024-01-30T05:43:47;99863.34;;;0.29;73.20
77323;BME280;66384;51.052;9.850;2024-01-30T05:46:23;99866.71;;;0.27;73.24
77323;BME280;66384;51.052;9.850;2024-01-30T05:49:00;99864.65;;;0.25;73.39
77323;BME280;66384;51.052;9.850;2024-01-30T05:51:36;99866.34;;;0.23;73.47
77323;BME280;66384;51.052;9.850;2024-01-30T05:54:13;99868.67;;;0.20;73.41
77323;BME280;66384;51.052;9.850;2024-01-30T05:56:50;99868.42;;;0.19;73.46
77323;BME280;66384;51.052;9.850;2024-01-30T05:59:26;99869.98;;;0.17;73.44
77323;BME280;66384;51.052;9.850;2024-01-30T06:02:03;99871.98;;;0.17;73.54
77323;BME280;66384;51.052;9.850;2024-01-30T06:04:39;99872.45;;;0.19;73.62
77323;BME280;66384;51.052;9.850;2024-01-30T06:07:15;99872.08;;;0.20;73.38
77323;BME280;66384;51.052;9.850;2024-01-30T06:09:52;99875.41;;;0.22;73.37
77323;BME280;66384;51.052;9.850;2024-01-30T06:12:29;99877.89;;;0.23;73.26
77323;BME280;66384;51.052;9.850;2024-01-30T06:15:06;99875.27;;;0.22;73.23
77323;BME280;66384;51.052;9.850;2024-01-30T06:17:43;99874.38;;;0.20;73.15
77323;BME280;66384;51.052;9.850;2024-01-30T06:20:19;99868.92;;;0.19;73.23
77323;BME280;66384;51.052;9.850;2024-01-30T06:22:56;99866.86;;;0.17;73.12
77323;BME280;66384;51.052;9.850;2024-01-30T06:25:32;99864.23;;;0.16;73.23
77323;BME280;66384;51.052;9.850;2024-01-30T06:28:09;99860.46;;;0.15;73.40
77323;BME280;66384;51.052;9.850;2024-01-30T06:30:46;99856.86;;;0.15;73.51
77323;BME280;66384;51.052;9.850;2024-01-30T06:33:22;99860.63;;;0.17;73.62
77323;BME280;66384;51.052;9.850;2024-01-30T06:35:59;99857.02;;;0.20;73.61
77323;BME280;66384;51.052;9.850;2024-01-30T06:38:35;99854.77;;;0.24;73.56
77323;BME280;66384;51.052;9.850;2024-01-30T06:41:11;99856.58;;;0.25;73.40
77323;BME280;66384;51.052;9.850;2024-01-30T06:43:47;99854.63;;;0.27;73.36
77323;BME280;66384;51.052;9.850;2024-01-30T06:46:24;99856.20;;;0.25;73.36
77323;BME280;66384;51.052;9.850;2024-01-30T06:49:01;99859.30;;;0.25;73.34
77323;BME280;66384;51.052;9.850;2024-01-30T06:51:37;99863.59;;;0.26;73.22
77323;BME280;66384;51.052;9.850;2024-01-30T06:54:13;99859.33;;;0.26;73.37
77323;BME280;66384;51.052;9.850;2024-01-30T06:56:50;99863.42;;;0.27;73.39
77323;BME280;66384;51.052;9.850;2024-01-30T06:59:26;99863.14;;;0.25;73.38
77323;BME280;66384;51.052;9.850;2024-01-30T07:02:02;99864.87;;;0.23;73.41
77323;BME280;66384;51.052;9.850;2024-01-30T07:04:39;99868.52;;;0.22;73.53
77323;BME280;66384;51.052;9.850;2024-01-30T07:07:19;99866.48;;;0.22;73.53
77323;BME280;66384;51.052;9.850;2024-01-30T07:09:55;99864.52;;;0.21;73.59
77323;BME280;66384;51.052;9.850;2024-01-30T07:12:33;99863.93;;;0.22;73.58
77323;BME280;66384;51.052;9.850;2024-01-30T07:15:10;99859.49;;;0.24;73.67
77323;BME280;66384;51.052;9.850;2024-01-30T07:17:49;99860.80;;;0.25;73.56
77323;BME280;66384;51.052;9.850;2024-01-30T07:20:26;99864.83;;;0.27;73.51
77323;BME280;66384;51.052;9.850;2024-01-30T07:23:04;99863.77;;;0.26;73.52
77323;BME280;66384;51.052;9.850;2024-01-30T07:25:40;99864.12;;;0.24;73.54
77323;BME280;66384;51.052;9.850;2024-01-30T07:28:19;99863.66;;;0.25;73.60
77323;BME280;66384;51.052;9.850;2024-01-30T07:30:55;99863.05;;;0.26;73.67
77323;BME280;66384;51.052;9.850;2024-01-30T07:33:32;99866.18;;;0.27;73.76
77323;BME280;66384;51.052;9.850;2024-01-30T07:36:08;99866.09;;;0.30;73.77
77323;BME280;66384;51.052;9.850;2024-01-30T07:38:45;99862.36;;;0.31;73.66
77323;BME280;66384;51.052;9.850;2024-01-30T07:41:21;99862.92;;;0.32;73.68
77323;BME280;66384;51.052;9.850;2024-01-30T07:43:58;99865.20;;;0.33;73.79
77323;BME280;66384;51.052;9.850;2024-01-30T07:46:34;99866.70;;;0.35;73.81
77323;BME280;66384;51.052;9.850;2024-01-30T07:49:11;99863.29;;;0.36;73.87
77323;BME280;66384;51.052;9.850;2024-01-30T07:51:47;99862.29;;;0.39;73.87
77323;BME280;66384;51.052;9.850;2024-01-30T07:54:24;99860.65;;;0.41;74.01
77323;BME280;66384;51.052;9.850;2024-01-30T07:57:00;99862.90;;;0.44;74.03
77323;BME280;66384;51.052;9.850;2024-01-30T07:59:36;99861.27;;;0.47;74.01
77323;BME280;66384;51.052;9.850;2024-01-30T08:02:12;99860.31;;;0.52;74.22
77323;BME280;66384;51.052;9.850;2024-01-30T08:04:49;99861.91;;;0.55;74.17
77323;BME280;66384;51.052;9.850;2024-01-30T08:07:25;99861.36;;;0.58;74.29
77323;BME280;66384;51.052;9.850;2024-01-30T08:10:03;99863.98;;;0.61;74.29
77323;BME280;66384;51.052;9.850;2024-01-30T08:12:40;99864.59;;;0.62;74.32
77323;BME280;66384;51.052;9.850;2024-01-30T08:15:17;99870.73;;;0.67;74.51
77323;BME280;66384;51.052;9.850;2024-01-30T08:17:53;99869.62;;;0.72;74.42
77323;BME280;66384;51.052;9.850;2024-01-30T08:20:31;99867.70;;;0.77;74.49
77323;BME280;66384;51.052;9.850;2024-01-30T08:23:08;99871.54;;;0.84;74.59
77323;BME280;66384;51.052;9.850;2024-01-30T08:25:44;99872.58;;;0.91;74.59
77323;BME280;66384;51.052;9.850;2024-01-30T08:28:21;99871.27;;;0.98;74.66
77323;BME280;66384;51.052;9.850;2024-01-30T08:30:57;99874.07;;;1.05;74.58
77323;BME280;66384;51.052;9.850;2024-01-30T08:33:34;99866.57;;;1.12;74.72
77323;BME280;66384;51.052;9.850;2024-01-30T08:36:12;99868.92;;;1.21;74.79
77323;BME280;66384;51.052;9.850;2024-01-30T08:38:49;99866.11;;;1.28;74.88
77323;BME280;66384;51.052;9.850;2024-01-30T08:41:31;99862.54;;;1.34;74.87
77323;BME280;66384;51.052;9.850;2024-01-30T08:44:07;99863.83;;;1.40;74.91
77323;BME280;66384;51.052;9.850;2024-01-30T08:46:44;99864.64;;;1.43;74.89
77323;BME280;66384;51.052;9.850;2024-01-30T08:49:22;99866.13;;;1.49;74.98
77323;BME280;66384;51.052;9.850;2024-01-30T08:51:58;99871.58;;;1.53;75.17
77323;BME280;66384;51.052;9.850;2024-01-30T08:54:34;99867.39;;;1.58;75.11
77323;BME280;66384;51.052;9.850;2024-01-30T08:57:11;99868.96;;;1.63;75.30
77323;BME280;66384;51.052;9.850;2024-01-30T08:59:48;99872.95;;;1.69;75.30
77323;BME280;66384;51.052;9.850;2024-01-30T09:02:24;99870.60;;;1.73;75.20
77323;BME280;66384;51.052;9.850;2024-01-30T09:05:01;99867.20;;;1.77;75.30
77323;BME280;66384;51.052;9.850;2024-01-30T09:07:37;99870.08;;;1.84;75.23
77323;BME280;66384;51.052;9.850;2024-01-30T09:10:14;99872.79;;;1.90;75.35
77323;BME280;66384;51.052;9.850;2024-01-30T09:12:53;99872.19;;;1.95;75.38
77323;BME280;66384;51.052;9.850;2024-01-30T09:15:29;99866.51;;;2.01;75.46
77323;BME280;66384;51.052;9.850;2024-01-30T09:18:07;99871.48;;;2.05;75.47
77323;BME280;66384;51.052;9.850;2024-01-30T09:20:44;99870.94;;;2.12;75.30
77323;BME280;66384;51.052;9.850;2024-01-30T09:23:21;99871.84;;;2.17;75.24
77323;BME280;66384;51.052;9.850;2024-01-30T09:25:57;99872.88;;;2.23;75.22
77323;BME280;66384;51.052;9.850;2024-01-30T09:28:34;99876.21;;;2.29;75.17
77323;BME280;66384;51.052;9.850;2024-01-30T09:31:14;99876.41;;;2.34;75.28
77323;BME280;66384;51.052;9.850;2024-01-30T09:33:51;99880.58;;;2.40;75.20
77323;BME280;66384;51.052;9.850;2024-01-30T09:36:28;99878.53;;;2.46;75.28
77323;BME280;66384;51.052;9.850;2024-01-30T09:39:04;99882.97;;;2.53;75.31
77323;BME280;66384;51.052;9.850;2024-01-30T09:41:48;99883.23;;;2.59;75.36
77323;BME280;66384;51.052;9.850;2024-01-30T09:44:25;99888.63;;;2.65;75.40
77323;BME280;66384;51.052;9.850;2024-01-30T09:47:04;99889.34;;;2.72;75.44
77323;BME280;66384;51.052;9.850;2024-01-30T09:49:41;99887.23;;;2.80;75.44
77323;BME280;66384;51.052;9.850;2024-01-30T09:52:19;99888.77;;;2.87;75.37
77323;BME280;66384;51.052;9.850;2024-01-30T09:54:57;99885.10;;;2.95;75.28
77323;BME280;66384;51.052;9.850;2024-01-30T09:57:36;99893.42;;;3.01;75.44
77323;BME280;66384;51.052;9.850;2024-01-30T10:00:11;99889.81;;;3.07;75.43
77323;BME280;66384;51.052;9.850;2024-01-30T10:02:48;99887.14;;;3.13;75.39
77323;BME280;66384;51.052;9.850;2024-01-30T10:05:29;99890.84;;;3.17;75.52
77323;BME280;66384;51.052;9.850;2024-01-30T10:08:10;99890.15;;;3.22;75.49
77323;BME280;66384;51.052;9.850;2024-01-30T10:10:47;99879.26;;;3.24;75.85
77323;BME280;66384;51.052;9.850;2024-01-30T10:13:24;99887.15;;;3.29;76.08
77323;BME280;66384;51.052;9.850;2024-01-30T10:16:01;99890.39;;;3.36;75.99
77323;BME280;66384;51.052;9.850;2024-01-30T10:18:40;99889.73;;;3.43;76.08
77323;BME280;66384;51.052;9.850;2024-01-30T10:21:17;99889.48;;;3.54;76.09
77323;BME280;66384;51.052;9.850;2024-01-30T10:23:55;99883.45;;;3.62;76.06
77323;BME280;66384;51.052;9.850;2024-01-30T10:26:31;99882.76;;;3.71;76.09
77323;BME280;66384;51.052;9.850;2024-01-30T10:29:08;99879.47;;;3.82;76.26
77323;BME280;66384;51.052;9.850;2024-01-30T10:31:44;99877.92;;;3.92;76.37
77323;BME280;66384;51.052;9.850;2024-01-30T10:34:21;99876.27;;;4.00;76.41
77323;BME280;66384;51.052;9.850;2024-01-30T10:37:07;99877.09;;;4.09;76.34
77323;BME280;66384;51.052;9.850;2024-01-30T10:39:46;99877.45;;;4.18;76.41
77323;BME280;66384;51.052;9.850;2024-01-30T10:42:25;99874.80;;;4.30;76.34
77323;BME280;66384;51.052;9.850;2024-01-30T10:45:05;99872.20;;;4.41;76.37
77323;BME280;66384;51.052;9.850;2024-01-30T10:47:44;99869.91;;;4.52;76.45
77323;BME280;66384;51.052;9.850;2024-01-30T10:50:27;99864.90;;;4.66;76.36
77323;BME280;66384;51.052;9.850;2024-01-30T10:53:04;99864.41;;;4.82;76.28
77323;BME280;66384;51.052;9.850;2024-01-30T10:55:38;99853.73;;;4.95;76.17
77323;BME280;66384;51.052;9.850;2024-01-30T10:58:15;99849.94;;;5.10;76.16
77323;BME280;66384;51.052;9.850;2024-01-30T11:00:52;99842.59;;;5.25;75.93
77323;BME280;66384;51.052;9.850;2024-01-30T11:03:30;99841.81;;;5.42;75.68
77323;BME280;66384;51.052;9.850;2024-01-30T11:06:10;99839.53;;;5.57;75.31
77323;BME280;66384;51.052;9.850;2024-01-30T11:08:47;99837.90;;;5.72;74.90
77323;BME280;66384;51.052;9.850;2024-01-30T11:11:50;99835.39;;;5.86;74.62
77323;BME280;66384;51.052;9.850;2024-01-30T11:14:31;99829.41;;;5.99;74.07
77323;BME280;66384;51.052;9.850;2024-01-30T11:17:08;99824.91;;;6.12;73.97
77323;BME280;66384;51.052;9.850;2024-01-30T11:19:45;99820.59;;;6.25;73.76
77323;BME280;66384;51.052;9.850;2024-01-30T11:22:25;99816.23;;;6.38;73.50
77323;BME280;66384;51.052;9.850;2024-01-30T11:25:01;99813.93;;;6.50;73.30
77323;BME280;66384;51.052;9.850;2024-01-30T11:27:38;99813.65;;;6.60;73.08
77323;BME280;66384;51.052;9.850;2024-01-30T11:30:20;99809.11;;;6.70;72.97
77323;BME280;66384;51.052;9.850;2024-01-30T11:33:05;99807.30;;;6.79;72.69
77323;BME280;66384;51.052;9.850;2024-01-30T11:35:43;99801.27;;;6.88;72.54
77323;BME280;66384;51.052;9.850;2024-01-30T11:38:20;99803.88;;;6.97;72.51
77323;BME280;66384;51.052;9.850;2024-01-30T11:40:58;99797.65;;;7.05;72.12
77323;BME280;66384;51.052;9.850;2024-01-30T11:43:35;99799.83;;;7.13;71.78
77323;BME280;66384;51.052;9.850;2024-01-30T11:46:12;99790.77;;;7.19;71.45
77323;BME280;66384;51.052;9.850;2024-01-30T11:48:48;99789.27;;;7.26;71.26
77323;BME280;66384;51.052;9.850;2024-01-30T11:51:27;99787.18;;;7.34;71.25
77323;BME280;66384;51.052;9.850;2024-01-30T11:54:03;99787.64;;;7.42;70.98
77323;BME280;66384;51.052;9.850;2024-01-30T11:56:40;99786.17;;;7.50;70.84
77323;BME280;66384;51.052;9.850;2024-01-30T11:59:17;99784.16;;;7.57;70.50
77323;BME280;66384;51.052;9.850;2024-01-30T12:01:54;99780.71;;;7.63;70.14
77323;BME280;66384;51.052;9.850;2024-01-30T12:04:30;99777.43;;;7.68;70.27
77323;BME280;66384;51.052;9.850;2024-01-30T12:07:06;99786.57;;;7.72;69.68
77323;BME280;66384;51.052;9.850;2024-01-30T12:09:51;99785.05;;;7.72;69.73
77323;BME280;66384;51.052;9.850;2024-01-30T12:12:28;99785.14;;;7.74;69.81
77323;BME280;66384;51.052;9.850;2024-01-30T12:15:06;99787.67;;;7.77;69.67
77323;BME280;66384;51.052;9.850;2024-01-30T12:17:43;99789.60;;;7.81;69.45
77323;BME280;66384;51.052;9.850;2024-01-30T12:20:20;99782.90;;;7.87;70.08
77323;BME280;66384;51.052;9.850;2024-01-30T12:22:58;99789.75;;;7.96;69.88
77323;BME280;66384;51.052;9.850;2024-01-30T12:25:34;99792.16;;;8.09;69.84
77323;BME280;66384;51.052;9.850;2024-01-30T12:28:10;99788.72;;;8.22;69.47
77323;BME280;66384;51.052;9.850;2024-01-30T12:30:49;99793.45;;;8.33;69.24
77323;BME280;66384;51.052;9.850;2024-01-30T12:33:29;99788.16;;;8.40;68.48
77323;BME280;66384;51.052;9.850;2024-01-30T12:36:07;99787.12;;;8.47;68.62
77323;BME280;66384;51.052;9.850;2024-01-30T12:38:44;99785.75;;;8.53;68.25
77323;BME280;66384;51.052;9.850;2024-01-30T12:41:20;99785.53;;;8.62;68.12
77323;BME280;66384;51.052;9.850;2024-01-30T12:44:01;99781.75;;;8.72;67.91
77323;BME280;66384;51.052;9.850;2024-01-30T12:46:39;99784.72;;;8.80;67.46
77323;BME280;66384;51.052;9.850;2024-01-30T12:49:17;99787.92;;;8.85;67.13
77323;BME280;66384;51.052;9.850;2024-01-30T12:51:55;99784.58;;;8.91;67.11
77323;BME280;66384;51.052;9.850;2024-01-30T12:54:31;99780.58;;;8.93;66.89
77323;BME280;66384;51.052;9.850;2024-01-30T12:57:08;99779.80;;;8.95;66.71
77323;BME280;66384;51.052;9.850;2024-01-30T12:59:44;99784.56;;;8.97;66.50
77323;BME280;66384;51.052;9.850;2024-01-30T13:02:18;99773.70;;;8.99;66.32
77323;BME280;66384;51.052;9.850;2024-01-30T13:04:56;99771.78;;;9.02;65.90
77323;BME280;66384;51.052;9.850;2024-01-30T13:07:30;99767.55;;;9.04;66.17
77323;BME280;66384;51.052;9.850;2024-01-30T13:10:08;99766.89;;;9.04;65.93
77323;BME280;66384;51.052;9.850;2024-01-30T13:12:45;99765.73;;;9.05;65.84
77323;BME280;66384;51.052;9.850;2024-01-30T13:15:21;99766.98;;;9.03;65.84
77323;BME280;66384;51.052;9.850;2024-01-30T13:17:58;99765.41;;;9.02;65.59
77323;BME280;66384;51.052;9.850;2024-01-30T13:20:35;99761.86;;;9.06;65.99
77323;BME280;66384;51.052;9.850;2024-01-30T13:23:12;99763.64;;;9.15;66.03
77323;BME280;66384;51.052;9.850;2024-01-30T13:25:49;99770.66;;;9.25;65.81
77323;BME280;66384;51.052;9.850;2024-01-30T13:28:27;99766.84;;;9.35;65.73
77323;BME280;66384;51.052;9.850;2024-01-30T13:31:03;99767.81;;;9.44;65.32
77323;BME280;66384;51.052;9.850;2024-01-30T13:33:40;99764.47;;;9.50;65.41
77323;BME280;66384;51.052;9.850;2024-01-30T13:36:17;99773.92;;;9.53;64.92
77323;BME280;66384;51.052;9.850;2024-01-30T13:38:53;99769.79;;;9.53;64.98
77323;BME280;66384;51.052;9.850;2024-01-30T13:41:30;99770.39;;;9.55;65.11
77323;BME280;66384;51.052;9.850;2024-01-30T13:44:06;99767.76;;;9.58;64.70
77323;BME280;66384;51.052;9.850;2024-01-30T13:46:43;99767.60;;;9.58;64.63
77323;BME280;66384;51.052;9.850;2024-01-30T13:49:19;99773.61;;;9.58;64.69
77323;BME280;66384;51.052;9.850;2024-01-30T13:51:57;99766.66;;;9.56;64.60
77323;BME280;66384;51.052;9.850;2024-01-30T13:54:33;99759.70;;;9.54;64.94
77323;BME280;66384;51.052;9.850;2024-01-30T13:57:09;99759.13;;;9.53;64.87
77323;BME280;66384;51.052;9.850;2024-01-30T13:59:46;99753.24;;;9.45;64.51
77323;BME280;66384;51.052;9.850;2024-01-30T14:02:22;99750.45;;;9.33;64.76